createdAt,value
2023-02-02T00:00:16.710Z,97353.05
2023-02-02T00:01:16.532Z,97354.3
2023-02-02T00:02:16.595Z,97351.48
2023-02-02T00:03:16.917Z,97352.59
2023-02-02T00:04:17.934Z,97347.77
2023-02-02T00:05:16.566Z,97351.56
2023-02-02T00:06:17.450Z,97346.48
2023-02-02T00:07:16.622Z,97349.39
2023-02-02T00:08:17.583Z,97349.06
2023-02-02T00:09:18.267Z,97344.92
2023-02-02T00:10:17.066Z,97346.8
2023-02-02T00:11:17.168Z,97348.75
2023-02-02T00:12:17.828Z,97348.47
2023-02-02T00:13:16.680Z,97350.05
2023-02-02T00:14:17.580Z,97345.77
2023-02-02T00:15:16.715Z,97346.52
2023-02-02T00:17:20.295Z,97347.64
2023-02-02T00:18:20.289Z,97347.72
2023-02-02T00:19:21.535Z,97345.66
2023-02-02T00:20:20.332Z,97348.49
2023-02-02T00:21:20.303Z,97343.12
2023-02-02T00:22:20.396Z,97343.89
2023-02-02T00:23:20.308Z,97343.81
2023-02-02T00:24:20.637Z,97344.67
2023-02-02T00:25:20.437Z,97344.65
2023-02-02T00:26:20.908Z,97344.55
2023-02-02T00:27:20.584Z,97343.52
2023-02-02T00:28:20.431Z,97345.55
2023-02-02T00:29:24.039Z,97345.99
2023-02-02T00:30:20.861Z,97343.19
2023-02-02T00:31:20.776Z,97344.91
2023-02-02T00:32:20.827Z,97345.59
2023-02-02T00:33:20.820Z,97350.34
2023-02-02T00:34:21.237Z,97346.14
2023-02-02T00:35:20.954Z,97347.05
2023-02-02T00:36:21.466Z,97346.83
2023-02-02T00:37:20.816Z,97350.31
2023-02-02T00:38:20.760Z,97346.13
2023-02-02T00:39:22.731Z,97347.34
2023-02-02T00:40:20.818Z,97341.25
2023-02-02T00:41:20.837Z,97348.73
2023-02-02T00:42:20.856Z,97344.72
2023-02-02T00:43:20.932Z,97343.7
2023-02-02T00:44:21.099Z,97346.83
2023-02-02T00:45:20.862Z,97349.02
2023-02-02T00:46:20.907Z,97349.78
2023-02-02T00:47:20.919Z,97349.77
2023-02-02T00:48:21.026Z,97346.55
2023-02-02T00:49:21.391Z,97349.14
2023-02-02T00:50:21.134Z,97350.73
2023-02-02T00:51:20.977Z,97350.93
2023-02-02T00:52:21.056Z,97349.17
2023-02-02T00:53:20.988Z,97348.95
2023-02-02T00:54:21.023Z,97349.95
2023-02-02T00:55:21.069Z,97351.52
2023-02-02T00:56:21.032Z,97350.05
2023-02-02T00:57:21.056Z,97352.31
2023-02-02T00:58:21.077Z,97351.06
2023-02-02T00:59:21.061Z,97353.08
2023-02-02T01:00:22.707Z,97350.65
2023-02-02T01:01:21.697Z,97356
2023-02-02T01:02:21.145Z,97354.5
2023-02-02T01:03:21.193Z,97355.05
2023-02-02T01:04:21.124Z,97350.2
2023-02-02T01:05:21.973Z,97352.66
2023-02-02T01:06:21.176Z,97357.27
2023-02-02T01:07:21.142Z,97351.27
2023-02-02T01:08:21.209Z,97353.56
2023-02-02T01:09:21.333Z,97355.7
2023-02-02T01:10:21.236Z,97350.23
2023-02-02T01:11:21.193Z,97346.72
2023-02-02T01:12:21.380Z,97351.17
2023-02-02T01:13:21.360Z,97351.19
2023-02-02T01:14:21.235Z,97353.88
2023-02-02T01:15:21.223Z,97358.52
2023-02-02T01:16:21.711Z,97357.2
2023-02-02T01:17:21.279Z,97355.68
2023-02-02T01:18:21.356Z,97359.32
2023-02-02T01:19:21.299Z,97356.53
2023-02-02T01:20:21.430Z,97353.2
2023-02-02T01:21:21.308Z,97358.07
2023-02-02T01:22:21.451Z,97352.02
2023-02-02T01:23:21.319Z,97355.17
2023-02-02T01:24:21.363Z,97355.46
2023-02-02T01:25:21.347Z,97354.05
2023-02-02T01:26:21.477Z,97354.36
2023-02-02T01:27:21.443Z,97356.97
2023-02-02T01:28:22.094Z,97355.47
2023-02-02T01:29:21.492Z,97354.84
2023-02-02T01:30:21.472Z,97356.42
2023-02-02T01:31:21.591Z,97359.58
2023-02-02T01:32:21.444Z,97354.05
2023-02-02T01:33:22.134Z,97354.31
2023-02-02T01:34:22.133Z,97351.28
2023-02-02T01:35:21.644Z,97354.69
2023-02-02T01:36:22.452Z,97354.41
2023-02-02T01:37:21.842Z,97353.35
2023-02-02T01:38:22.235Z,97353.31
2023-02-02T01:39:21.625Z,97355.08
2023-02-02T01:40:21.595Z,97354.22
2023-02-02T01:41:23.195Z,97356.86
2023-02-02T01:42:22.710Z,97358.43
2023-02-02T01:45:30.314Z,97359.81
2023-02-02T01:46:31.635Z,97356.7
2023-02-02T01:47:30.123Z,97358.82
2023-02-02T01:48:30.863Z,97364.92
2023-02-02T01:49:28.329Z,97368.09
2023-02-02T01:50:31.033Z,97362.48
2023-02-02T01:51:30.860Z,97365.09
2023-02-02T01:52:30.132Z,97369.58
2023-02-02T01:53:29.115Z,97360.48
2023-02-02T01:54:30.972Z,97362.39
2023-02-02T01:55:29.579Z,97364.56
2023-02-02T01:56:33.982Z,97365.83
2023-02-02T01:57:36.949Z,97369.08
2023-02-02T01:58:35.170Z,97366.42
2023-02-02T01:59:34.332Z,97366.59
2023-02-02T02:00:33.794Z,97371.05
2023-02-02T02:01:33.754Z,97371.27
2023-02-02T02:02:33.986Z,97370
2023-02-02T02:03:35.826Z,97370.16
2023-02-02T02:04:33.795Z,97372.78
2023-02-02T02:05:36.162Z,97372.17
2023-02-02T02:06:33.920Z,97372.66
2023-02-02T02:07:33.895Z,97375.5
2023-02-02T02:08:42.016Z,97371.33
2023-02-02T02:09:38.746Z,97378.25
2023-02-02T02:10:38.975Z,97374.17
2023-02-02T02:11:38.759Z,97373.84
2023-02-02T02:12:39.177Z,97380.17
2023-02-02T02:13:38.831Z,97379.61
2023-02-02T02:14:45.144Z,97376.03
2023-02-02T02:31:31.053Z,97381.31
2023-02-02T02:36:39.347Z,97386.1
2023-02-02T02:39:47.435Z,97389.48
2023-02-02T02:40:46.044Z,97385.99
2023-02-02T02:41:46.391Z,97390.09
2023-02-02T02:42:45.837Z,97394.23
2023-02-02T02:44:47.938Z,97393.18
2023-02-02T02:45:47.198Z,97395.84
2023-02-02T02:46:47.006Z,97390.42
2023-02-02T02:47:48.324Z,97396.27
2023-02-02T02:48:46.778Z,97394.3
2023-02-02T02:49:47.714Z,97395.59
2023-02-02T02:50:46.909Z,97393.22
2023-02-02T02:51:50.703Z,97394.38
2023-02-02T02:52:47.629Z,97394.06
2023-02-02T02:53:46.944Z,97396.23
2023-02-02T02:59:03.032Z,97397.76
2023-02-02T03:01:09.734Z,97397.98
2023-02-02T03:03:09.525Z,97399.4
2023-02-02T03:07:26.490Z,97402.48
2023-02-02T03:09:21.922Z,97404.11
2023-02-02T03:10:22.774Z,97404.42
2023-02-02T03:11:19.718Z,97407.01
2023-02-02T03:12:19.410Z,97405.38
2023-02-02T03:13:19.737Z,97405.69
2023-02-02T03:14:19.362Z,97406.19
2023-02-02T03:15:19.531Z,97405.95
2023-02-02T03:16:19.407Z,97409.41
2023-02-02T03:17:19.441Z,97407.38
2023-02-02T03:18:21.565Z,97408.77
2023-02-02T03:19:19.423Z,97405.37
2023-02-02T03:20:19.751Z,97407.17
2023-02-02T03:21:19.495Z,97405.98
2023-02-02T03:22:19.474Z,97409.67
2023-02-02T03:23:19.519Z,97410.11
2023-02-02T03:24:19.536Z,97408.73
2023-02-02T03:25:19.542Z,97412.65
2023-02-02T03:26:19.780Z,97413.7
2023-02-02T03:27:19.527Z,97415.56
2023-02-02T03:28:19.817Z,97412.23
2023-02-02T03:29:19.752Z,97409.8
2023-02-02T03:30:19.971Z,97414.95
2023-02-02T03:31:19.909Z,97415.96
2023-02-02T03:32:19.633Z,97416.55
2023-02-02T03:33:19.761Z,97419.89
2023-02-02T03:34:19.675Z,97421.5
2023-02-02T03:35:19.636Z,97421.55
2023-02-02T03:36:19.637Z,97425.14
2023-02-02T03:37:19.673Z,97428.95
2023-02-02T03:38:19.658Z,97424.95
2023-02-02T03:39:19.732Z,97418.44
2023-02-02T03:40:19.829Z,97424.72
2023-02-02T03:41:19.695Z,97427.12
2023-02-02T03:42:19.730Z,97426.17
2023-02-02T03:43:20.520Z,97423.5
2023-02-02T03:44:19.735Z,97421.14
2023-02-02T03:45:19.766Z,97424.44
2023-02-02T03:46:19.937Z,97423.86
2023-02-02T03:47:19.752Z,97428.67
2023-02-02T03:48:19.784Z,97424.73
2023-02-02T03:49:19.965Z,97424.78
2023-02-02T03:50:20.032Z,97429.16
2023-02-02T03:51:19.842Z,97428.8
2023-02-02T03:52:19.835Z,97424.67
2023-02-02T03:53:20.073Z,97427.09
2023-02-02T03:54:19.874Z,97426.88
2023-02-02T03:55:19.894Z,97425.84
2023-02-02T03:56:19.937Z,97429.89
2023-02-02T03:57:20.124Z,97428.5
2023-02-02T03:58:19.912Z,97423.48
2023-02-02T03:59:19.936Z,97427.51
2023-02-02T04:00:20.338Z,97425.06
2023-02-02T04:02:22.509Z,97422.12
2023-02-02T04:03:22.126Z,97423.75
2023-02-02T04:04:22.165Z,97425.34
2023-02-02T04:05:22.387Z,97425.76
2023-02-02T04:06:22.463Z,97422.72
2023-02-02T04:07:22.679Z,97424.27
2023-02-02T04:08:22.733Z,97426.19
2023-02-02T04:09:22.680Z,97427.48
2023-02-02T04:10:22.713Z,97423.58
2023-02-02T04:11:22.709Z,97429.33
2023-02-02T04:12:22.909Z,97429.25
2023-02-02T04:13:22.931Z,97430.34
2023-02-02T04:14:22.722Z,97432.09
2023-02-02T04:15:23.219Z,97432.69
2023-02-02T04:16:22.847Z,97434.08
2023-02-02T04:17:22.777Z,97439.12
2023-02-02T04:18:22.893Z,97434.05
2023-02-02T04:19:22.827Z,97437.56
2023-02-02T04:20:22.840Z,97433.16
2023-02-02T04:21:22.828Z,97435.45
2023-02-02T04:22:22.984Z,97437
2023-02-02T04:23:22.910Z,97437.29
2023-02-02T04:24:22.927Z,97438.39
2023-02-02T04:25:23.260Z,97438.8
2023-02-02T04:26:23.292Z,97441.13
2023-02-02T04:27:22.935Z,97445.32
2023-02-02T04:28:23.374Z,97442.03
2023-02-02T04:29:22.957Z,97440.38
2023-02-02T04:30:22.951Z,97443.34
2023-02-02T04:31:23.179Z,97442.66
2023-02-02T04:32:22.980Z,97443.25
2023-02-02T04:33:24.259Z,97443.62
2023-02-02T04:34:23.516Z,97441.55
2023-02-02T04:35:24.003Z,97444.53
2023-02-02T04:36:23.670Z,97445.16
2023-02-02T04:37:23.563Z,97441.77
2023-02-02T04:38:23.682Z,97447.2
2023-02-02T04:39:23.720Z,97442.16
2023-02-02T04:40:23.824Z,97446.95
2023-02-02T04:41:24.131Z,97447.14
2023-02-02T04:42:23.653Z,97446.12
2023-02-02T04:43:23.642Z,97444.98
2023-02-02T04:44:23.857Z,97447.6
2023-02-02T04:45:24.179Z,97452.12
2023-02-02T04:46:23.682Z,97449.41
2023-02-02T04:47:23.767Z,97456.39
2023-02-02T04:48:23.710Z,97453.49
2023-02-02T04:49:23.842Z,97452.12
2023-02-02T04:50:23.803Z,97452.66
2023-02-02T04:51:23.770Z,97452.15
2023-02-02T04:52:23.777Z,97452.53
2023-02-02T04:53:23.773Z,97456.14
2023-02-02T04:54:23.811Z,97456.82
2023-02-02T04:55:24.847Z,97453.77
2023-02-02T04:56:23.807Z,97452.69
2023-02-02T04:57:23.844Z,97456.23
2023-02-02T04:58:24.291Z,97457.19
2023-02-02T04:59:23.923Z,97458.68
2023-02-02T05:00:23.904Z,97458.3
2023-02-02T05:01:24.438Z,97458.07
2023-02-02T05:02:23.927Z,97457.04
2023-02-02T05:03:23.982Z,97462.59
2023-02-02T05:04:24.095Z,97460.78
2023-02-02T05:05:24.380Z,97462.83
2023-02-02T05:06:24.076Z,97463.77
2023-02-02T05:07:24.037Z,97467.22
2023-02-02T05:08:24.074Z,97467.77
2023-02-02T05:09:24.206Z,97465.9
2023-02-02T05:10:24.056Z,97466.27
2023-02-02T05:11:24.125Z,97465.33
2023-02-02T05:12:24.102Z,97467.95
2023-02-02T05:13:24.456Z,97468.84
2023-02-02T05:14:24.108Z,97472.73
2023-02-02T05:15:24.514Z,97472.76
2023-02-02T05:16:25.892Z,97474.09
2023-02-02T05:17:24.249Z,97469.27
2023-02-02T05:18:24.179Z,97477.77
2023-02-02T05:19:24.205Z,97476.64
2023-02-02T05:20:24.202Z,97477.22
2023-02-02T05:21:24.228Z,97473.36
2023-02-02T05:22:24.310Z,97474.4
2023-02-02T05:23:24.253Z,97477.31
2023-02-02T05:24:24.265Z,97476.73
2023-02-02T05:25:24.723Z,97481.73
2023-02-02T05:26:25.527Z,97482.2
2023-02-02T05:27:24.486Z,97478.7
2023-02-02T05:28:24.739Z,97480.12
2023-02-02T05:29:24.562Z,97485.7
2023-02-02T05:30:24.373Z,97482.47
2023-02-02T05:31:24.409Z,97490.52
2023-02-02T05:32:24.709Z,97487.59
2023-02-02T05:33:24.440Z,97493.2
2023-02-02T05:34:24.565Z,97493.81
2023-02-02T05:35:24.912Z,97496.51
2023-02-02T05:36:24.537Z,97497.67
2023-02-02T05:37:24.548Z,97498.08
2023-02-02T05:38:24.615Z,97502.44
2023-02-02T05:39:24.536Z,97502.83
2023-02-02T05:40:24.921Z,97501.84
2023-02-02T05:41:24.549Z,97501.87
2023-02-02T05:42:24.582Z,97508.32
2023-02-02T05:43:25.252Z,97508.8
2023-02-02T05:44:24.586Z,97508.47
2023-02-02T05:45:24.933Z,97505.91
2023-02-02T05:46:24.656Z,97508.33
2023-02-02T05:47:24.782Z,97512.03
2023-02-02T05:48:26.189Z,97510.91
2023-02-02T05:49:24.741Z,97510.14
2023-02-02T05:50:24.682Z,97513.97
2023-02-02T05:51:29.324Z,97509.16
2023-02-02T05:52:25.745Z,97509.28
2023-02-02T05:53:25.574Z,97511.62
2023-02-02T05:54:25.568Z,97510.03
2023-02-02T05:55:25.906Z,97516.8
2023-02-02T05:56:25.586Z,97509.12
2023-02-02T05:57:25.896Z,97512.19
2023-02-02T05:58:25.644Z,97516.55
2023-02-02T05:59:25.653Z,97513.36
2023-02-02T06:00:26.245Z,97516.95
2023-02-02T06:01:25.762Z,97519.82
2023-02-02T06:02:25.729Z,97520.95
2023-02-02T06:03:25.910Z,97522.09
2023-02-02T06:04:25.918Z,97522.75
2023-02-02T06:05:26.121Z,97523.91
2023-02-02T06:06:25.742Z,97529.8
2023-02-02T06:07:25.781Z,97525.94
2023-02-02T06:08:26.003Z,97526.88
2023-02-02T06:09:25.843Z,97527.08
2023-02-02T06:10:25.838Z,97532.7
2023-02-02T06:11:25.813Z,97530.64
2023-02-02T06:12:25.835Z,97526.7
2023-02-02T06:13:26.029Z,97530.37
2023-02-02T06:14:25.915Z,97530.01
2023-02-02T06:15:26.298Z,97527.36
2023-02-02T06:16:25.958Z,97529.81
2023-02-02T06:17:25.929Z,97529.14
2023-02-02T06:18:26.054Z,97532.17
2023-02-02T06:19:25.954Z,97532.08
2023-02-02T06:20:25.967Z,97535.22
2023-02-02T06:21:26.007Z,97533.73
2023-02-02T06:22:26.305Z,97535.77
2023-02-02T06:23:26.179Z,97532.75
2023-02-02T06:24:26.084Z,97540.02
2023-02-02T06:25:26.782Z,97537.2
2023-02-02T06:26:26.121Z,97544.02
2023-02-02T06:27:26.093Z,97543.09
2023-02-02T06:28:26.151Z,97544.93
2023-02-02T06:29:26.199Z,97550.52
2023-02-02T06:30:26.785Z,97549.09
2023-02-02T06:31:26.326Z,97550.47
2023-02-02T06:32:28.240Z,97545.19
2023-02-02T06:33:26.370Z,97551.28
2023-02-02T06:34:26.204Z,97553.06
2023-02-02T06:35:26.588Z,97555.65
2023-02-02T06:36:26.927Z,97553.87
2023-02-02T06:37:26.235Z,97556.27
2023-02-02T06:38:26.450Z,97558.66
2023-02-02T06:39:26.251Z,97552.99
2023-02-02T06:40:26.847Z,97555.69
2023-02-02T06:41:26.373Z,97556.55
2023-02-02T06:42:26.357Z,97556.92
2023-02-02T06:43:26.681Z,97555.53
2023-02-02T06:44:26.331Z,97558.61
2023-02-02T06:45:27.239Z,97555.44
2023-02-02T06:46:26.505Z,97558.04
2023-02-02T06:47:26.965Z,97562.14
2023-02-02T06:48:27.021Z,97560.53
2023-02-02T06:49:26.395Z,97559.55
2023-02-02T06:50:26.516Z,97560.12
2023-02-02T06:51:26.456Z,97565.55
2023-02-02T06:52:26.466Z,97560.95
2023-02-02T06:53:26.762Z,97560.59
2023-02-02T06:54:26.536Z,97566.83
2023-02-02T06:55:26.833Z,97567.65
2023-02-02T06:56:26.652Z,97562.73
2023-02-02T06:57:26.541Z,97567.62
2023-02-02T06:58:27.401Z,97570.09
2023-02-02T06:59:26.637Z,97567.95
2023-02-02T07:00:27.382Z,97568.7
2023-02-02T07:01:26.650Z,97570.14
2023-02-02T07:02:26.782Z,97567.76
2023-02-02T07:03:26.680Z,97571.09
2023-02-02T07:04:26.703Z,97569.53
2023-02-02T07:05:30.064Z,97572.89
2023-02-02T07:06:27.720Z,97577.81
2023-02-02T07:07:27.034Z,97571.83
2023-02-02T07:08:26.929Z,97575.92
2023-02-02T07:09:26.965Z,97575.59
2023-02-02T07:11:13.546Z,97571.43
2023-02-02T07:11:28.092Z,97578.25
2023-02-02T07:12:28.116Z,97576.79
2023-02-02T07:13:28.446Z,97578.42
2023-02-02T07:14:28.171Z,97577.2
2023-02-02T07:15:28.176Z,97578.95
2023-02-02T07:16:28.210Z,97580.58
2023-02-02T07:17:28.205Z,97581.91
2023-02-02T07:18:28.215Z,97585.66
2023-02-02T07:19:28.572Z,97584.77
2023-02-02T07:20:28.258Z,97584.33
2023-02-02T07:21:28.312Z,97582.8
2023-02-02T07:22:28.280Z,97589.52
2023-02-02T07:23:29.192Z,97588.73
2023-02-02T07:24:28.488Z,97593.73
2023-02-02T07:25:28.368Z,97592.38
2023-02-02T07:26:28.603Z,97596.08
2023-02-02T07:27:28.360Z,97593.84
2023-02-02T07:28:28.532Z,97596.68
2023-02-02T07:29:28.413Z,97602.69
2023-02-02T07:30:28.692Z,97603.64
2023-02-02T07:31:28.882Z,97605.52
2023-02-02T07:32:28.507Z,97603.34
2023-02-02T07:33:28.490Z,97607.73
2023-02-02T07:34:28.493Z,97604.55
2023-02-02T07:35:28.513Z,97604.37
2023-02-02T07:36:28.545Z,97608.22
2023-02-02T07:37:28.546Z,97614.08
2023-02-02T07:38:28.550Z,97610.45
2023-02-02T07:39:28.604Z,97611.25
2023-02-02T07:40:28.598Z,97612.62
2023-02-02T07:41:28.597Z,97613.78
2023-02-02T07:42:28.628Z,97610.74
2023-02-02T07:43:28.680Z,97616.98
2023-02-02T07:44:28.815Z,97617.29
2023-02-02T07:45:28.815Z,97617.78
2023-02-02T07:46:29.246Z,97618.83
2023-02-02T07:47:28.675Z,97621.81
2023-02-02T07:48:29.500Z,97618.81
2023-02-02T07:49:28.792Z,97622.34
2023-02-02T07:50:29.812Z,97618.31
2023-02-02T07:51:28.750Z,97621.47
2023-02-02T07:52:29.130Z,97621.86
2023-02-02T07:53:28.977Z,97622.94
2023-02-02T07:54:30.916Z,97624.03
2023-02-02T07:55:33.563Z,97629.23
2023-02-02T07:56:33.743Z,97624.89
2023-02-02T07:57:33.562Z,97628.72
2023-02-02T07:58:33.495Z,97628.48
2023-02-02T07:59:33.517Z,97629.01
2023-02-02T08:00:33.514Z,97629.92
2023-02-02T08:01:33.441Z,97632.5
2023-02-02T08:02:33.454Z,97631.14
2023-02-02T08:03:33.875Z,97629.82
2023-02-02T08:04:33.456Z,97631.43
2023-02-02T08:05:33.518Z,97634.59
2023-02-02T08:06:34.855Z,97633.06
2023-02-02T08:07:36.495Z,97634.08
2023-02-02T08:08:33.505Z,97633.07
2023-02-02T08:09:33.543Z,97635.36
2023-02-02T08:10:33.579Z,97634.88
2023-02-02T08:11:34.243Z,97633.8
2023-02-02T08:12:33.583Z,97640.94
2023-02-02T08:13:33.756Z,97636.23
2023-02-02T08:14:33.604Z,97643.31
2023-02-02T08:15:33.671Z,97638.47
2023-02-02T08:16:34.150Z,97643.04
2023-02-02T08:17:33.683Z,97646.83
2023-02-02T08:18:34.653Z,97644.43
2023-02-02T08:19:33.886Z,97643.47
2023-02-02T08:20:34.148Z,97645.59
2023-02-02T08:21:34.317Z,97644.93
2023-02-02T08:22:33.755Z,97645.55
2023-02-02T08:23:33.922Z,97650.38
2023-02-02T08:24:34.027Z,97649.69
2023-02-02T08:25:33.796Z,97647.74
2023-02-02T08:26:33.981Z,97649.21
2023-02-02T08:27:35.259Z,97645.19
2023-02-02T08:28:33.917Z,97652.84
2023-02-02T08:29:34.369Z,97654.53
2023-02-02T08:30:37.002Z,97652.55
2023-02-02T08:31:38.097Z,97656.73
2023-02-02T08:32:34.433Z,97655.59
2023-02-02T08:33:34.467Z,97657.73
2023-02-02T08:34:34.508Z,97659.05
2023-02-02T08:35:34.518Z,97658.55
2023-02-02T08:36:34.554Z,97659.79
2023-02-02T08:37:34.583Z,97658.25
2023-02-02T08:38:34.561Z,97662.28
2023-02-02T08:39:34.568Z,97668.86
2023-02-02T08:40:34.654Z,97666.61
2023-02-02T08:41:35.056Z,97670.83
2023-02-02T08:42:34.755Z,97670.61
2023-02-02T08:43:34.993Z,97673.38
2023-02-02T08:46:00.215Z,97675.04
2023-02-02T08:46:03.134Z,97677.83
2023-02-02T08:46:37.247Z,97679.03
2023-02-02T08:47:37.434Z,97677.47
2023-02-02T08:48:37.764Z,97683.87
2023-02-02T08:49:37.290Z,97682.8
2023-02-02T08:50:37.307Z,97684.41
2023-02-02T08:51:37.309Z,97686.6
2023-02-02T08:52:37.313Z,97682.7
2023-02-02T08:53:37.402Z,97684.13
2023-02-02T08:54:37.362Z,97682.98
2023-02-02T08:55:37.384Z,97686.2
2023-02-02T08:56:37.608Z,97689.39
2023-02-02T08:57:37.411Z,97686.73
2023-02-02T08:58:37.475Z,97688.73
2023-02-02T08:59:37.427Z,97689.61
2023-02-02T09:00:37.476Z,97690.2
2023-02-02T09:01:37.461Z,97693.12
2023-02-02T09:02:37.573Z,97696.2
2023-02-02T09:03:37.982Z,97698.69
2023-02-02T09:04:37.503Z,97700.8
2023-02-02T09:05:37.534Z,97698.71
2023-02-02T09:06:39.216Z,97696.96
2023-02-02T09:07:37.549Z,97700.42
2023-02-02T09:08:37.827Z,97704.15
2023-02-02T09:09:37.744Z,97701.8
2023-02-02T09:10:38.143Z,97702.98
2023-02-02T09:11:38.234Z,97705.12
2023-02-02T09:12:37.698Z,97706.02
2023-02-02T09:13:39.087Z,97709.83
2023-02-02T09:14:37.673Z,97709.73
2023-02-02T09:15:37.688Z,97712.49
2023-02-02T09:16:38.033Z,97713.76
2023-02-02T09:17:37.740Z,97713.77
2023-02-02T09:18:38.084Z,97712.13
2023-02-02T09:19:37.870Z,97714.32
2023-02-02T09:20:37.796Z,97717.76
2023-02-02T09:21:37.810Z,97717.73
2023-02-02T09:22:37.828Z,97719.07
2023-02-02T09:23:39.037Z,97719.3
2023-02-02T09:24:37.906Z,97720.86
2023-02-02T09:25:37.859Z,97719.9
2023-02-02T09:26:38.166Z,97719.12
2023-02-02T09:27:38.142Z,97720.49
2023-02-02T09:28:39.365Z,97724.48
2023-02-02T09:29:38.121Z,97726.36
2023-02-02T09:30:37.970Z,97725.55
2023-02-02T09:31:38.428Z,97725.19
2023-02-02T09:32:37.982Z,97724.47
2023-02-02T09:33:38.158Z,97722.85
2023-02-02T09:34:40.100Z,97721.98
2023-02-02T09:35:38.019Z,97725.04
2023-02-02T09:36:38.787Z,97725.86
2023-02-02T09:37:38.262Z,97725.77
2023-02-02T09:38:38.428Z,97728.69
2023-02-02T09:39:38.095Z,97725.14
2023-02-02T09:40:40.393Z,97725.88
2023-02-02T09:43:45.303Z,97729.11
2023-02-02T09:45:47.751Z,97733.64
2023-02-02T09:46:51.894Z,97737
2023-02-02T09:47:52.606Z,97736.04
2023-02-02T09:51:59.892Z,97742.25
2023-02-02T09:54:02.710Z,97740.86
2023-02-02T09:55:03.085Z,97750.28
2023-02-02T09:56:01.226Z,97749.85
2023-02-02T09:57:00.130Z,97751.55
2023-02-02T09:58:01.691Z,97748.92
2023-02-02T09:59:13.697Z,97751.2
2023-02-02T10:00:06.219Z,97752.16
2023-02-02T10:01:09.627Z,97752.42
2023-02-02T10:03:13.075Z,97751.23
2023-02-02T10:04:14.859Z,97753.64
2023-02-02T10:05:15.449Z,97751.73
2023-02-02T10:07:19.082Z,97756.55
2023-02-02T10:13:32.313Z,97761.88
2023-02-02T10:14:39.063Z,97760.28
2023-02-02T10:15:39.654Z,97765.88
2023-02-02T10:16:31.946Z,97762.89
2023-02-02T10:19:38.973Z,97763.02
2023-02-02T10:22:39.132Z,97768.25
2023-02-02T10:24:41.206Z,97767.66
2023-02-02T10:27:54.200Z,97773.38
2023-02-02T10:45:31.088Z,97784.52
2023-02-02T10:47:33.775Z,97779.91
2023-02-02T10:48:34.623Z,97784.77
2023-02-02T10:49:34.656Z,97787.81
2023-02-02T10:50:34.316Z,97784.19
2023-02-02T10:51:33.906Z,97785.35
2023-02-02T10:52:34.400Z,97782.14
2023-02-02T10:53:33.674Z,97782.91
2023-02-02T10:55:39.986Z,97782.95
2023-02-02T10:56:40.292Z,97781.56
2023-02-02T10:58:40.156Z,97786.45
2023-02-02T11:01:41.737Z,97786.52
2023-02-02T11:02:41.888Z,97788.61
2023-02-02T11:03:41.809Z,97790.56
2023-02-02T11:04:41.731Z,97793.37
2023-02-02T11:05:41.853Z,97794.95
2023-02-02T11:06:41.816Z,97790.52
2023-02-02T11:07:41.782Z,97794.06
2023-02-02T11:08:43.108Z,97798.09
2023-02-02T11:09:42.668Z,97798.66
2023-02-02T11:10:43.049Z,97797.41
2023-02-02T11:11:43.457Z,97799.66
2023-02-02T11:12:43.806Z,97795.63
2023-02-02T11:13:49.565Z,97799.81
2023-02-02T11:14:47.600Z,97799.52
2023-02-02T11:15:45.804Z,97796.43
2023-02-02T11:16:46.109Z,97802.42
2023-02-02T11:17:45.853Z,97802.45
2023-02-02T11:18:45.995Z,97807.11
2023-02-02T11:19:45.882Z,97806.5
2023-02-02T11:20:45.871Z,97808.95
2023-02-02T11:21:47.417Z,97809.59
2023-02-02T11:22:45.916Z,97811.39
2023-02-02T11:24:48.607Z,97812.95
2023-02-02T11:25:56.977Z,97815.19
2023-02-02T11:26:50.299Z,97814.23
2023-02-02T11:27:48.578Z,97815.62
2023-02-02T11:28:49.111Z,97815.81
2023-02-02T11:29:52.618Z,97819.95
2023-02-02T11:30:50.656Z,97819.32
2023-02-02T11:31:49.100Z,97822.82
2023-02-02T11:32:48.897Z,97819.84
2023-02-02T11:33:50.291Z,97819.5
2023-02-02T11:34:48.982Z,97821.25
2023-02-02T11:35:57.170Z,97820.04
2023-02-02T11:37:56.847Z,97823.33
2023-02-02T11:42:04.784Z,97830.42
2023-02-02T11:43:03.697Z,97828.62
2023-02-02T11:44:01.050Z,97827.7
2023-02-02T11:45:01.185Z,97832.45
2023-02-02T11:46:03.297Z,97828.05
2023-02-02T11:47:03.481Z,97834
2023-02-02T11:48:02.520Z,97838.31
2023-02-02T11:49:02.585Z,97836.66
2023-02-02T11:50:02.166Z,97842.2
2023-02-02T11:51:01.632Z,97841.48
2023-02-02T11:52:02.948Z,97844.27
2023-02-02T11:53:01.545Z,97843.48
2023-02-02T11:55:14.477Z,97847.02
2023-02-02T11:56:11.672Z,97848.88
2023-02-02T11:57:09.137Z,97849.14
2023-02-02T12:00:24.746Z,97851.86
2023-02-02T12:02:27.244Z,97852.99
2023-02-02T12:03:35.533Z,97855.29
2023-02-02T12:04:27.271Z,97855.52
2023-02-02T12:05:36.751Z,97857.55
2023-02-02T12:06:37.638Z,97855.24
2023-02-02T12:07:32.556Z,97857.85
2023-02-02T12:08:29.588Z,97858.44
2023-02-02T12:09:29.446Z,97856.68
2023-02-02T12:10:36.813Z,97858.75
2023-02-02T12:16:56.196Z,97867.09
2023-02-02T12:17:57.119Z,97868.13
2023-02-02T12:21:04.495Z,97871.77
2023-02-02T12:29:23.439Z,97876.59
2023-02-02T12:33:34.877Z,97879.02
2023-02-02T12:57:48.367Z,97904.82
2023-02-02T12:58:45.002Z,97906.62
2023-02-02T13:03:57.903Z,97913.99
2023-02-02T13:07:09.213Z,97910.8
2023-02-02T13:08:03.810Z,97914.61
2023-02-02T13:09:13.993Z,97915.94
2023-02-02T13:11:11.606Z,97915.11
2023-02-02T13:12:10.102Z,97921.58
2023-02-02T13:15:18.976Z,97922.47
2023-02-02T13:16:16.309Z,97921.06
2023-02-02T13:17:17.792Z,97921.72
2023-02-02T13:21:25.817Z,97931.62
2023-02-02T13:22:29.004Z,97933.11
2023-02-02T13:23:28.537Z,97932.95
2023-02-02T13:24:31.579Z,97934.01
2023-02-02T13:25:30.463Z,97934.77
2023-02-02T13:26:30.615Z,97937.95
2023-02-02T13:27:29.636Z,97940.62
2023-02-02T13:28:34.604Z,97942.14
2023-02-02T13:29:48.334Z,97942.05
2023-02-02T13:30:38.707Z,97942.91
2023-02-02T13:31:44.297Z,97943.77
2023-02-02T13:32:38.199Z,97946.49
2023-02-02T13:33:37.589Z,97945.78
2023-02-02T13:34:47.188Z,97950.27
2023-02-02T13:36:41.733Z,97950.16
2023-02-02T13:38:41.959Z,97953.45
2023-02-02T13:39:44.846Z,97952.58
2023-02-02T13:40:43.428Z,97956.99
2023-02-02T13:41:42.560Z,97958.01
2023-02-02T13:42:45.114Z,97956.31
2023-02-02T13:44:49.529Z,97960.3
2023-02-02T13:47:57.516Z,97965.51
2023-02-02T13:50:01.305Z,97961.74
2023-02-02T13:59:28.398Z,97980.87
2023-02-02T14:00:28.429Z,97978.75
2023-02-02T14:01:20.803Z,97978.53
2023-02-02T14:03:27.455Z,97981.17
2023-02-02T14:04:30.931Z,97983.11
2023-02-02T14:05:35.357Z,97985
2023-02-02T14:07:43.684Z,97989.12
2023-02-02T14:09:48.138Z,97993.93
2023-02-02T14:10:57.574Z,97996.16
2023-02-02T14:11:54.205Z,97999.32
2023-02-02T14:12:51.625Z,98000
2023-02-02T14:13:53.390Z,98001.47
2023-02-02T14:14:51.034Z,98003.88
2023-02-02T14:15:55.381Z,98008.42
2023-02-02T14:16:52.410Z,98006.36
2023-02-02T14:17:53.546Z,98007.5
2023-02-02T14:18:53.110Z,98005.38
2023-02-02T14:20:01.928Z,98008.8
2023-02-02T14:20:53.737Z,98013.67
2023-02-02T14:22:01.123Z,98013.02
2023-02-02T14:22:57.919Z,98008.29
2023-02-02T14:23:58.918Z,98014.38
2023-02-02T14:24:57.950Z,98018.72
2023-02-02T14:26:04.218Z,98014.09
2023-02-02T14:27:02.096Z,98020.12
2023-02-02T14:28:02.529Z,98019.88
2023-02-02T14:29:00.962Z,98019.12
2023-02-02T14:30:01.035Z,98020.69
2023-02-02T14:36:14.644Z,98026.53